Terminal Aerodrome Forecast
Issued by NWS

Home | Current Version | Previous Version | Text Only | Print | Product List | Glossary On
Versions: 1 2 3 4 5 6 7 8 9 10 11 12 13 14 15 16 17
289
FTUS45 KMSO 271720
TAFSMN
TAF
KSMN 271720Z 2718/2818 VRB05KT P6SM SCT060 SCT120
     FM272000 33010G20KT P6SM VCTS BKN070CB BKN100
     FM280000 34009KT P6SM VCSH BKN100
     FM280400 35008KT P6SM SCT100
      AMD LTD TO CLD VIS AND WIND=

USA.gov is the U.S. government's official web portal to all federal, state and local government web resources and services.